sensor_id;sensor_type;location;lat;lon;timestamp;temperature;humidity
52044;DHT22;38053;53.100;6.078;2023-05-10T00:01:05;12.40;99.90
52044;DHT22;38053;53.100;6.078;2023-05-10T00:03:31;12.30;99.90
52044;DHT22;38053;53.100;6.078;2023-05-10T00:05:56;12.30;99.90
52044;DHT22;38053;53.100;6.078;2023-05-10T00:08:22;12.30;99.90
52044;DHT22;38053;53.100;6.078;2023-05-10T00:10:49;12.30;99.90
52044;DHT22;38053;53.100;6.078;2023-05-10T00:13:14;12.30;99.90
52044;DHT22;38053;53.100;6.078;2023-05-10T00:15:40;12.30;99.90
52044;DHT22;38053;53.100;6.078;2023-05-10T00:18:06;12.30;99.90
52044;DHT22;38053;53.100;6.078;2023-05-10T00:20:32;12.30;99.90
52044;DHT22;38053;53.100;6.078;2023-05-10T00:22:57;12.30;99.90
52044;DHT22;38053;53.100;6.078;2023-05-10T00:25:23;12.20;99.90
52044;DHT22;38053;53.100;6.078;2023-05-10T00:27:49;12.20;99.90
52044;DHT22;38053;53.100;6.078;2023-05-10T00:30:15;12.20;99.90
52044;DHT22;38053;53.100;6.078;2023-05-10T00:32:41;12.20;99.90
52044;DHT22;38053;53.100;6.078;2023-05-10T00:35:07;12.20;99.90
52044;DHT22;38053;53.100;6.078;2023-05-10T00:37:33;12.20;99.90
52044;DHT22;38053;53.100;6.078;2023-05-10T00:40:00;12.20;99.90
52044;DHT22;38053;53.100;6.078;2023-05-10T00:42:25;12.20;99.90
52044;DHT22;38053;53.100;6.078;2023-05-10T00:44:51;12.20;99.90
52044;DHT22;38053;53.100;6.078;2023-05-10T00:47:17;12.10;99.90
52044;DHT22;38053;53.100;6.078;2023-05-10T00:49:43;12.10;99.90
52044;DHT22;38053;53.100;6.078;2023-05-10T00:52:09;12.20;99.90
52044;DHT22;38053;53.100;6.078;2023-05-10T00:54:35;12.20;99.90
52044;DHT22;38053;53.100;6.078;2023-05-10T00:57:01;12.10;99.90
52044;DHT22;38053;53.100;6.078;2023-05-10T00:59:27;12.10;99.90
52044;DHT22;38053;53.100;6.078;2023-05-10T01:01:54;12.10;99.90
52044;DHT22;38053;53.100;6.078;2023-05-10T01:04:19;12.10;99.90
52044;DHT22;38053;53.100;6.078;2023-05-10T01:06:51;12.10;99.90
52044;DHT22;38053;53.100;6.078;2023-05-10T01:09:17;12.10;99.90
52044;DHT22;38053;53.100;6.078;2023-05-10T01:11:43;12.10;99.90
52044;DHT22;38053;53.100;6.078;2023-05-10T01:14:09;12.10;99.90
52044;DHT22;38053;53.100;6.078;2023-05-10T01:16:40;12.10;99.90
52044;DHT22;38053;53.100;6.078;2023-05-10T01:21:49;12.10;99.90
52044;DHT22;38053;53.100;6.078;2023-05-10T01:27:19;12.10;99.90
52044;DHT22;38053;53.100;6.078;2023-05-10T01:32:41;12.10;99.90
52044;DHT22;38053;53.100;6.078;2023-05-10T01:35:58;12.10;99.90
52044;DHT22;38053;53.100;6.078;2023-05-10T01:44:00;12.10;99.90
52044;DHT22;38053;53.100;6.078;2023-05-10T01:46:33;12.10;99.90
52044;DHT22;38053;53.100;6.078;2023-05-10T01:49:02;12.10;99.90
52044;DHT22;38053;53.100;6.078;2023-05-10T01:51:38;12.10;99.90
52044;DHT22;38053;53.100;6.078;2023-05-10T01:54:06;12.10;99.90
52044;DHT22;38053;53.100;6.078;2023-05-10T01:56:33;12.10;99.90
52044;DHT22;38053;53.100;6.078;2023-05-10T01:59:00;12.10;99.90
52044;DHT22;38053;53.100;6.078;2023-05-10T02:01:31;12.10;99.90
52044;DHT22;38053;53.100;6.078;2023-05-10T02:03:58;12.00;99.90
52044;DHT22;38053;53.100;6.078;2023-05-10T02:06:25;12.00;99.90
52044;DHT22;38053;53.100;6.078;2023-05-10T02:08:52;12.00;99.90
52044;DHT22;38053;53.100;6.078;2023-05-10T02:11:19;12.00;99.90
52044;DHT22;38053;53.100;6.078;2023-05-10T02:13:49;12.00;99.90
52044;DHT22;38053;53.100;6.078;2023-05-10T02:16:16;12.00;99.90
52044;DHT22;38053;53.100;6.078;2023-05-10T02:18:42;12.00;99.90
52044;DHT22;38053;53.100;6.078;2023-05-10T02:21:10;12.00;99.90
52044;DHT22;38053;53.100;6.078;2023-05-10T02:23:36;12.00;99.90
52044;DHT22;38053;53.100;6.078;2023-05-10T02:26:03;12.00;99.90
52044;DHT22;38053;53.100;6.078;2023-05-10T02:28:31;12.00;99.90
52044;DHT22;38053;53.100;6.078;2023-05-10T02:30:58;12.00;99.90
52044;DHT22;38053;53.100;6.078;2023-05-10T02:33:25;12.00;99.90
52044;DHT22;38053;53.100;6.078;2023-05-10T02:35:52;12.00;99.90
52044;DHT22;38053;53.100;6.078;2023-05-10T02:38:19;12.00;99.90
52044;DHT22;38053;53.100;6.078;2023-05-10T02:40:47;12.00;99.90
52044;DHT22;38053;53.100;6.078;2023-05-10T02:43:14;12.00;99.90
52044;DHT22;38053;53.100;6.078;2023-05-10T02:45:42;12.00;99.90
52044;DHT22;38053;53.100;6.078;2023-05-10T02:48:08;12.00;99.90
52044;DHT22;38053;53.100;6.078;2023-05-10T02:50:35;12.00;99.90
52044;DHT22;38053;53.100;6.078;2023-05-10T02:53:18;12.00;99.90
52044;DHT22;38053;53.100;6.078;2023-05-10T02:55:50;12.00;99.90
52044;DHT22;38053;53.100;6.078;2023-05-10T02:58:17;12.00;99.90
52044;DHT22;38053;53.100;6.078;2023-05-10T03:00:45;12.00;99.90
52044;DHT22;38053;53.100;6.078;2023-05-10T03:03:11;12.00;99.90
52044;DHT22;38053;53.100;6.078;2023-05-10T03:05:37;12.00;99.90
52044;DHT22;38053;53.100;6.078;2023-05-10T03:08:03;12.00;99.90
52044;DHT22;38053;53.100;6.078;2023-05-10T03:10:31;12.00;99.90
52044;DHT22;38053;53.100;6.078;2023-05-10T03:13:25;12.00;99.90
52044;DHT22;38053;53.100;6.078;2023-05-10T03:16:08;12.00;99.90
52044;DHT22;38053;53.100;6.078;2023-05-10T03:18:43;12.00;99.90
52044;DHT22;38053;53.100;6.078;2023-05-10T03:21:11;12.00;99.90
52044;DHT22;38053;53.100;6.078;2023-05-10T03:23:46;12.00;99.90
52044;DHT22;38053;53.100;6.078;2023-05-10T03:26:23;12.00;99.90
52044;DHT22;38053;53.100;6.078;2023-05-10T03:28:51;12.00;99.90
52044;DHT22;38053;53.100;6.078;2023-05-10T03:31:18;12.00;99.90
52044;DHT22;38053;53.100;6.078;2023-05-10T03:33:48;12.00;99.90
52044;DHT22;38053;53.100;6.078;2023-05-10T03:36:14;11.90;99.90
52044;DHT22;38053;53.100;6.078;2023-05-10T03:38:40;12.00;99.90
52044;DHT22;38053;53.100;6.078;2023-05-10T03:41:05;12.00;99.90
52044;DHT22;38053;53.100;6.078;2023-05-10T03:43:31;12.00;99.90
52044;DHT22;38053;53.100;6.078;2023-05-10T03:45:57;12.00;99.90
52044;DHT22;38053;53.100;6.078;2023-05-10T03:48:22;12.00;99.90
52044;DHT22;38053;53.100;6.078;2023-05-10T03:50:48;12.00;99.90
52044;DHT22;38053;53.100;6.078;2023-05-10T03:53:15;12.00;99.90
52044;DHT22;38053;53.100;6.078;2023-05-10T03:55:41;12.00;99.90
52044;DHT22;38053;53.100;6.078;2023-05-10T03:58:06;12.00;99.90
52044;DHT22;38053;53.100;6.078;2023-05-10T04:00:32;12.00;99.90
52044;DHT22;38053;53.100;6.078;2023-05-10T04:02:58;12.00;99.90
52044;DHT22;38053;53.100;6.078;2023-05-10T04:05:24;12.00;99.90
52044;DHT22;38053;53.100;6.078;2023-05-10T04:07:49;12.00;99.90
52044;DHT22;38053;53.100;6.078;2023-05-10T04:10:16;11.90;99.90
52044;DHT22;38053;53.100;6.078;2023-05-10T04:12:42;11.90;99.90
52044;DHT22;38053;53.100;6.078;2023-05-10T04:15:08;11.90;99.90
52044;DHT22;38053;53.100;6.078;2023-05-10T04:17:34;11.90;99.90
52044;DHT22;38053;53.100;6.078;2023-05-10T04:19:59;11.90;99.90
52044;DHT22;38053;53.100;6.078;2023-05-10T04:22:25;11.90;99.90
52044;DHT22;38053;53.100;6.078;2023-05-10T04:24:51;11.90;99.90
52044;DHT22;38053;53.100;6.078;2023-05-10T04:27:16;11.90;99.90
52044;DHT22;38053;53.100;6.078;2023-05-10T04:29:42;11.90;99.90
52044;DHT22;38053;53.100;6.078;2023-05-10T04:32:08;11.90;99.90
52044;DHT22;38053;53.100;6.078;2023-05-10T04:34:36;11.90;99.90
52044;DHT22;38053;53.100;6.078;2023-05-10T04:37:01;11.90;99.90
52044;DHT22;38053;53.100;6.078;2023-05-10T04:39:27;11.90;99.90
52044;DHT22;38053;53.100;6.078;2023-05-10T04:41:52;11.90;99.90
52044;DHT22;38053;53.100;6.078;2023-05-10T04:44:18;11.90;99.90
52044;DHT22;38053;53.100;6.078;2023-05-10T04:46:44;11.80;99.90
52044;DHT22;38053;53.100;6.078;2023-05-10T04:49:09;11.80;99.90
52044;DHT22;38053;53.100;6.078;2023-05-10T04:51:35;11.80;99.90
52044;DHT22;38053;53.100;6.078;2023-05-10T04:54:00;11.80;99.90
52044;DHT22;38053;53.100;6.078;2023-05-10T04:56:26;11.80;99.90
52044;DHT22;38053;53.100;6.078;2023-05-10T04:58:52;11.80;99.90
52044;DHT22;38053;53.100;6.078;2023-05-10T05:01:17;11.80;99.90
52044;DHT22;38053;53.100;6.078;2023-05-10T05:03:43;11.80;99.90
52044;DHT22;38053;53.100;6.078;2023-05-10T05:06:09;11.80;99.90
52044;DHT22;38053;53.100;6.078;2023-05-10T05:08:34;11.80;99.90
52044;DHT22;38053;53.100;6.078;2023-05-10T05:11:00;11.80;99.90
52044;DHT22;38053;53.100;6.078;2023-05-10T05:13:26;11.80;99.90
52044;DHT22;38053;53.100;6.078;2023-05-10T05:15:51;11.80;99.90
52044;DHT22;38053;53.100;6.078;2023-05-10T05:18:17;11.80;99.90
52044;DHT22;38053;53.100;6.078;2023-05-10T05:20:43;11.80;99.90
52044;DHT22;38053;53.100;6.078;2023-05-10T05:23:08;11.80;99.90
52044;DHT22;38053;53.100;6.078;2023-05-10T05:25:34;11.80;99.90
52044;DHT22;38053;53.100;6.078;2023-05-10T05:27:59;11.80;99.90
52044;DHT22;38053;53.100;6.078;2023-05-10T05:30:25;11.80;99.90
52044;DHT22;38053;53.100;6.078;2023-05-10T05:32:51;11.80;99.90
52044;DHT22;38053;53.100;6.078;2023-05-10T05:35:16;11.80;99.90
52044;DHT22;38053;53.100;6.078;2023-05-10T05:37:42;11.80;99.90
52044;DHT22;38053;53.100;6.078;2023-05-10T05:40:08;11.80;99.90
52044;DHT22;38053;53.100;6.078;2023-05-10T05:42:37;11.90;99.90
52044;DHT22;38053;53.100;6.078;2023-05-10T05:45:04;11.90;99.90
52044;DHT22;38053;53.100;6.078;2023-05-10T05:47:30;11.90;99.90
52044;DHT22;38053;53.100;6.078;2023-05-10T05:49:56;11.90;99.90
52044;DHT22;38053;53.100;6.078;2023-05-10T05:52:21;11.90;99.90
52044;DHT22;38053;53.100;6.078;2023-05-10T05:54:47;11.90;99.90
52044;DHT22;38053;53.100;6.078;2023-05-10T05:57:13;11.90;99.90
52044;DHT22;38053;53.100;6.078;2023-05-10T05:59:38;11.90;99.90
52044;DHT22;38053;53.100;6.078;2023-05-10T06:02:10;11.90;99.90
52044;DHT22;38053;53.100;6.078;2023-05-10T06:04:35;11.90;99.90
52044;DHT22;38053;53.100;6.078;2023-05-10T06:07:01;12.00;99.90
52044;DHT22;38053;53.100;6.078;2023-05-10T06:09:27;11.90;99.90
52044;DHT22;38053;53.100;6.078;2023-05-10T06:11:52;12.00;99.90
52044;DHT22;38053;53.100;6.078;2023-05-10T06:14:20;12.00;99.90
52044;DHT22;38053;53.100;6.078;2023-05-10T06:16:46;12.00;99.90
52044;DHT22;38053;53.100;6.078;2023-05-10T06:19:11;12.00;99.90
52044;DHT22;38053;53.100;6.078;2023-05-10T06:21:37;12.00;99.90
52044;DHT22;38053;53.100;6.078;2023-05-10T06:24:03;12.00;99.90
52044;DHT22;38053;53.100;6.078;2023-05-10T06:26:29;12.00;99.90
52044;DHT22;38053;53.100;6.078;2023-05-10T06:28:54;12.10;99.90
52044;DHT22;38053;53.100;6.078;2023-05-10T06:31:20;12.10;99.90
52044;DHT22;38053;53.100;6.078;2023-05-10T06:33:46;12.00;99.90
52044;DHT22;38053;53.100;6.078;2023-05-10T06:36:11;12.10;99.90
52044;DHT22;38053;53.100;6.078;2023-05-10T06:38:38;12.10;99.90
52044;DHT22;38053;53.100;6.078;2023-05-10T06:41:04;12.10;99.90
52044;DHT22;38053;53.100;6.078;2023-05-10T06:43:31;12.10;99.90
52044;DHT22;38053;53.100;6.078;2023-05-10T06:45:57;12.10;99.90
52044;DHT22;38053;53.100;6.078;2023-05-10T06:48:23;12.20;99.90
52044;DHT22;38053;53.100;6.078;2023-05-10T06:50:48;12.20;99.90
52044;DHT22;38053;53.100;6.078;2023-05-10T06:53:14;12.30;99.90
52044;DHT22;38053;53.100;6.078;2023-05-10T06:55:40;12.30;99.90
52044;DHT22;38053;53.100;6.078;2023-05-10T06:58:06;12.30;99.90
52044;DHT22;38053;53.100;6.078;2023-05-10T07:00:32;12.30;99.90
52044;DHT22;38053;53.100;6.078;2023-05-10T07:02:57;12.30;99.90
52044;DHT22;38053;53.100;6.078;2023-05-10T07:05:23;12.30;99.90
52044;DHT22;38053;53.100;6.078;2023-05-10T07:07:49;12.40;99.90
52044;DHT22;38053;53.100;6.078;2023-05-10T07:10:15;12.30;99.90
52044;DHT22;38053;53.100;6.078;2023-05-10T07:12:41;12.30;99.90
52044;DHT22;38053;53.100;6.078;2023-05-10T07:15:07;12.40;99.90
52044;DHT22;38053;53.100;6.078;2023-05-10T07:17:33;12.30;99.90
52044;DHT22;38053;53.100;6.078;2023-05-10T07:19:59;12.30;99.90
52044;DHT22;38053;53.100;6.078;2023-05-10T07:22:25;12.30;99.90
52044;DHT22;38053;53.100;6.078;2023-05-10T07:24:51;12.30;99.90
52044;DHT22;38053;53.100;6.078;2023-05-10T07:27:17;12.30;99.90
52044;DHT22;38053;53.100;6.078;2023-05-10T07:29:42;12.30;99.90
52044;DHT22;38053;53.100;6.078;2023-05-10T07:32:08;12.30;99.90
52044;DHT22;38053;53.100;6.078;2023-05-10T07:34:34;12.20;99.90
52044;DHT22;38053;53.100;6.078;2023-05-10T07:36:59;12.30;99.90
52044;DHT22;38053;53.100;6.078;2023-05-10T07:39:26;12.20;99.90
52044;DHT22;38053;53.100;6.078;2023-05-10T07:41:52;12.30;99.90
52044;DHT22;38053;53.100;6.078;2023-05-10T07:44:17;12.30;99.90
52044;DHT22;38053;53.100;6.078;2023-05-10T07:46:46;12.30;99.90
52044;DHT22;38053;53.100;6.078;2023-05-10T07:49:13;12.20;99.90
52044;DHT22;38053;53.100;6.078;2023-05-10T07:51:38;12.20;99.90
52044;DHT22;38053;53.100;6.078;2023-05-10T07:54:04;12.20;99.90
52044;DHT22;38053;53.100;6.078;2023-05-10T07:56:31;12.20;99.90
52044;DHT22;38053;53.100;6.078;2023-05-10T07:58:58;12.20;99.90
52044;DHT22;38053;53.100;6.078;2023-05-10T08:01:24;12.30;99.90
52044;DHT22;38053;53.100;6.078;2023-05-10T08:03:50;12.20;99.90
52044;DHT22;38053;53.100;6.078;2023-05-10T08:06:17;12.30;99.90
52044;DHT22;38053;53.100;6.078;2023-05-10T08:08:43;12.30;99.90
52044;DHT22;38053;53.100;6.078;2023-05-10T08:11:17;12.30;99.90
52044;DHT22;38053;53.100;6.078;2023-05-10T08:13:44;12.30;99.90
52044;DHT22;38053;53.100;6.078;2023-05-10T08:16:09;12.40;99.90
52044;DHT22;38053;53.100;6.078;2023-05-10T08:18:35;12.40;99.90
52044;DHT22;38053;53.100;6.078;2023-05-10T08:21:01;12.40;99.90
52044;DHT22;38053;53.100;6.078;2023-05-10T08:23:26;12.50;99.90
52044;DHT22;38053;53.100;6.078;2023-05-10T08:25:52;12.50;99.90
52044;DHT22;38053;53.100;6.078;2023-05-10T08:28:17;12.50;99.90
52044;DHT22;38053;53.100;6.078;2023-05-10T08:30:43;12.60;99.90
52044;DHT22;38053;53.100;6.078;2023-05-10T08:33:09;12.60;99.90
52044;DHT22;38053;53.100;6.078;2023-05-10T08:35:34;12.60;99.90
52044;DHT22;38053;53.100;6.078;2023-05-10T08:38:00;12.60;99.90
52044;DHT22;38053;53.100;6.078;2023-05-10T08:40:27;12.70;99.90
52044;DHT22;38053;53.100;6.078;2023-05-10T08:45:32;12.90;99.90
52044;DHT22;38053;53.100;6.078;2023-05-10T08:48:01;13.00;99.90
52044;DHT22;38053;53.100;6.078;2023-05-10T08:50:27;13.20;99.90
52044;DHT22;38053;53.100;6.078;2023-05-10T08:52:59;13.30;99.90
52044;DHT22;38053;53.100;6.078;2023-05-10T08:55:25;13.40;99.90
52044;DHT22;38053;53.100;6.078;2023-05-10T08:57:51;13.40;99.90
52044;DHT22;38053;53.100;6.078;2023-05-10T09:00:17;13.50;99.90
52044;DHT22;38053;53.100;6.078;2023-05-10T09:02:43;13.50;99.90
52044;DHT22;38053;53.100;6.078;2023-05-10T09:05:11;13.60;99.90
52044;DHT22;38053;53.100;6.078;2023-05-10T09:07:37;13.70;99.90
52044;DHT22;38053;53.100;6.078;2023-05-10T09:10:04;13.70;99.90
52044;DHT22;38053;53.100;6.078;2023-05-10T09:12:30;13.70;99.90
52044;DHT22;38053;53.100;6.078;2023-05-10T09:14:56;13.60;99.90
52044;DHT22;38053;53.100;6.078;2023-05-10T09:17:24;13.70;99.90
52044;DHT22;38053;53.100;6.078;2023-05-10T09:19:50;13.80;99.90
52044;DHT22;38053;53.100;6.078;2023-05-10T09:22:22;13.80;99.90
52044;DHT22;38053;53.100;6.078;2023-05-10T09:24:48;13.90;99.90
52044;DHT22;38053;53.100;6.078;2023-05-10T09:27:28;14.00;99.90
52044;DHT22;38053;53.100;6.078;2023-05-10T09:29:53;14.00;99.90
52044;DHT22;38053;53.100;6.078;2023-05-10T09:32:20;14.00;99.90
52044;DHT22;38053;53.100;6.078;2023-05-10T09:34:49;14.00;99.90
52044;DHT22;38053;53.100;6.078;2023-05-10T09:37:15;14.00;99.90
52044;DHT22;38053;53.100;6.078;2023-05-10T09:39:41;14.20;99.90
52044;DHT22;38053;53.100;6.078;2023-05-10T09:42:08;14.30;99.90
52044;DHT22;38053;53.100;6.078;2023-05-10T09:44:35;14.30;99.90
52044;DHT22;38053;53.100;6.078;2023-05-10T09:47:01;14.40;99.90
52044;DHT22;38053;53.100;6.078;2023-05-10T09:49:27;14.40;99.90
52044;DHT22;38053;53.100;6.078;2023-05-10T09:52:05;14.50;99.90
52044;DHT22;38053;53.100;6.078;2023-05-10T09:54:31;14.50;99.90
52044;DHT22;38053;53.100;6.078;2023-05-10T09:56:57;14.60;99.90
52044;DHT22;38053;53.100;6.078;2023-05-10T09:59:25;14.60;99.90
52044;DHT22;38053;53.100;6.078;2023-05-10T10:01:55;14.70;99.90
52044;DHT22;38053;53.100;6.078;2023-05-10T10:04:21;14.60;99.90
52044;DHT22;38053;53.100;6.078;2023-05-10T10:07:04;14.70;99.90
52044;DHT22;38053;53.100;6.078;2023-05-10T10:09:30;14.80;99.90
52044;DHT22;38053;53.100;6.078;2023-05-10T10:11:56;14.80;99.90
52044;DHT22;38053;53.100;6.078;2023-05-10T10:14:23;14.70;99.90
52044;DHT22;38053;53.100;6.078;2023-05-10T10:16:50;14.50;99.90
52044;DHT22;38053;53.100;6.078;2023-05-10T10:19:20;14.50;99.90
52044;DHT22;38053;53.100;6.078;2023-05-10T10:21:47;14.40;99.90
52044;DHT22;38053;53.100;6.078;2023-05-10T10:24:13;14.40;99.90
52044;DHT22;38053;53.100;6.078;2023-05-10T10:26:39;14.50;99.90
52044;DHT22;38053;53.100;6.078;2023-05-10T10:29:31;14.60;99.90
52044;DHT22;38053;53.100;6.078;2023-05-10T10:34:31;14.70;99.90
52044;DHT22;38053;53.100;6.078;2023-05-10T10:36:58;14.70;99.90
52044;DHT22;38053;53.100;6.078;2023-05-10T10:39:29;14.70;99.90
52044;DHT22;38053;53.100;6.078;2023-05-10T10:41:57;14.70;99.90
52044;DHT22;38053;53.100;6.078;2023-05-10T10:52:37;14.80;99.90
52044;DHT22;38053;53.100;6.078;2023-05-10T10:55:14;14.80;99.90
52044;DHT22;38053;53.100;6.078;2023-05-10T11:00:28;14.80;99.90
52044;DHT22;38053;53.100;6.078;2023-05-10T11:02:59;14.70;99.90
52044;DHT22;38053;53.100;6.078;2023-05-10T11:05:48;14.70;99.90
52044;DHT22;38053;53.100;6.078;2023-05-10T11:08:27;14.70;99.90
52044;DHT22;38053;53.100;6.078;2023-05-10T11:13:46;14.60;99.90
52044;DHT22;38053;53.100;6.078;2023-05-10T11:16:22;14.50;99.90
52044;DHT22;38053;53.100;6.078;2023-05-10T11:18:53;14.60;99.90
52044;DHT22;38053;53.100;6.078;2023-05-10T11:21:20;14.50;99.90
52044;DHT22;38053;53.100;6.078;2023-05-10T11:23:56;14.60;99.90
52044;DHT22;38053;53.100;6.078;2023-05-10T11:26:24;14.60;99.90
52044;DHT22;38053;53.100;6.078;2023-05-10T11:28:53;14.50;99.90
52044;DHT22;38053;53.100;6.078;2023-05-10T11:31:20;14.50;99.90
52044;DHT22;38053;53.100;6.078;2023-05-10T11:33:51;14.50;99.90
52044;DHT22;38053;53.100;6.078;2023-05-10T11:36:22;14.50;99.90
52044;DHT22;38053;53.100;6.078;2023-05-10T11:38:48;14.50;99.90
52044;DHT22;38053;53.100;6.078;2023-05-10T11:41:18;14.50;99.90
52044;DHT22;38053;53.100;6.078;2023-05-10T11:43:46;14.50;99.90
52044;DHT22;38053;53.100;6.078;2023-05-10T11:46:14;14.60;99.90
52044;DHT22;38053;53.100;6.078;2023-05-10T11:48:41;14.60;99.90
52044;DHT22;38053;53.100;6.078;2023-05-10T11:51:08;14.70;99.90
52044;DHT22;38053;53.100;6.078;2023-05-10T11:53:34;14.70;99.90
52044;DHT22;38053;53.100;6.078;2023-05-10T11:56:07;14.80;99.90
52044;DHT22;38053;53.100;6.078;2023-05-10T11:58:33;14.90;99.90
52044;DHT22;38053;53.100;6.078;2023-05-10T12:01:00;15.00;99.90
52044;DHT22;38053;53.100;6.078;2023-05-10T12:03:30;15.10;99.90
52044;DHT22;38053;53.100;6.078;2023-05-10T12:05:56;15.10;99.90
52044;DHT22;38053;53.100;6.078;2023-05-10T12:08:23;15.00;99.90
52044;DHT22;38053;53.100;6.078;2023-05-10T12:10:49;15.00;99.90
52044;DHT22;38053;53.100;6.078;2023-05-10T12:13:15;14.90;99.90
52044;DHT22;38053;53.100;6.078;2023-05-10T12:15:42;14.90;99.90
52044;DHT22;38053;53.100;6.078;2023-05-10T12:18:09;14.80;99.90
52044;DHT22;38053;53.100;6.078;2023-05-10T12:20:36;14.80;99.90
52044;DHT22;38053;53.100;6.078;2023-05-10T12:23:02;14.80;99.90
52044;DHT22;38053;53.100;6.078;2023-05-10T12:25:36;14.70;99.90
52044;DHT22;38053;53.100;6.078;2023-05-10T12:28:07;14.70;99.90
52044;DHT22;38053;53.100;6.078;2023-05-10T12:30:34;14.80;99.90
52044;DHT22;38053;53.100;6.078;2023-05-10T12:33:12;14.80;99.90
52044;DHT22;38053;53.100;6.078;2023-05-10T12:35:52;14.90;99.90
52044;DHT22;38053;53.100;6.078;2023-05-10T12:38:47;15.10;99.90
52044;DHT22;38053;53.100;6.078;2023-05-10T12:41:15;15.40;99.90
52044;DHT22;38053;53.100;6.078;2023-05-10T12:43:41;15.60;99.90
52044;DHT22;38053;53.100;6.078;2023-05-10T12:46:08;15.70;99.90
52044;DHT22;38053;53.100;6.078;2023-05-10T12:48:35;15.90;99.90
52044;DHT22;38053;53.100;6.078;2023-05-10T12:51:02;16.00;99.90
52044;DHT22;38053;53.100;6.078;2023-05-10T12:53:28;16.10;99.90
52044;DHT22;38053;53.100;6.078;2023-05-10T12:55:54;16.10;99.90
52044;DHT22;38053;53.100;6.078;2023-05-10T12:58:19;16.20;99.90
52044;DHT22;38053;53.100;6.078;2023-05-10T13:00:45;16.30;99.90
52044;DHT22;38053;53.100;6.078;2023-05-10T13:03:11;16.30;99.90
52044;DHT22;38053;53.100;6.078;2023-05-10T13:05:38;16.50;99.90
52044;DHT22;38053;53.100;6.078;2023-05-10T13:08:04;16.60;99.90
52044;DHT22;38053;53.100;6.078;2023-05-10T13:10:30;16.70;99.90
52044;DHT22;38053;53.100;6.078;2023-05-10T13:13:00;16.80;99.90
52044;DHT22;38053;53.100;6.078;2023-05-10T13:15:26;16.80;99.90
52044;DHT22;38053;53.100;6.078;2023-05-10T13:17:52;16.80;99.90
52044;DHT22;38053;53.100;6.078;2023-05-10T13:20:18;16.90;99.90
52044;DHT22;38053;53.100;6.078;2023-05-10T13:22:44;16.90;99.90
52044;DHT22;38053;53.100;6.078;2023-05-10T13:25:11;16.90;99.90
52044;DHT22;38053;53.100;6.078;2023-05-10T13:27:37;16.90;99.90
52044;DHT22;38053;53.100;6.078;2023-05-10T13:30:03;17.00;99.90
52044;DHT22;38053;53.100;6.078;2023-05-10T13:32:29;17.00;99.90
52044;DHT22;38053;53.100;6.078;2023-05-10T13:34:55;17.00;99.90
52044;DHT22;38053;53.100;6.078;2023-05-10T13:37:21;16.90;99.90
52044;DHT22;38053;53.100;6.078;2023-05-10T13:39:47;16.90;99.90
52044;DHT22;38053;53.100;6.078;2023-05-10T13:42:13;16.90;99.90
52044;DHT22;38053;53.100;6.078;2023-05-10T13:44:39;16.90;99.90
52044;DHT22;38053;53.100;6.078;2023-05-10T13:47:05;16.80;99.90
52044;DHT22;38053;53.100;6.078;2023-05-10T13:49:31;16.90;99.90
52044;DHT22;38053;53.100;6.078;2023-05-10T13:51:56;16.90;99.90
52044;DHT22;38053;53.100;6.078;2023-05-10T13:54:23;17.00;99.90
52044;DHT22;38053;53.100;6.078;2023-05-10T13:56:49;17.00;99.90
52044;DHT22;38053;53.100;6.078;2023-05-10T13:59:15;17.10;99.90
52044;DHT22;38053;53.100;6.078;2023-05-10T14:01:41;17.10;99.90
52044;DHT22;38053;53.100;6.078;2023-05-10T14:04:08;17.10;99.90
52044;DHT22;38053;53.100;6.078;2023-05-10T14:06:36;17.00;99.90
52044;DHT22;38053;53.100;6.078;2023-05-10T14:09:02;17.00;99.90
52044;DHT22;38053;53.100;6.078;2023-05-10T14:11:28;16.90;99.90
52044;DHT22;38053;53.100;6.078;2023-05-10T14:13:54;16.90;99.90
52044;DHT22;38053;53.100;6.078;2023-05-10T14:16:19;16.80;99.90
52044;DHT22;38053;53.100;6.078;2023-05-10T14:18:46;16.90;99.90
52044;DHT22;38053;53.100;6.078;2023-05-10T14:21:12;16.80;99.90
52044;DHT22;38053;53.100;6.078;2023-05-10T14:23:38;16.70;99.90
52044;DHT22;38053;53.100;6.078;2023-05-10T14:26:03;16.70;99.90
52044;DHT22;38053;53.100;6.078;2023-05-10T14:28:29;16.80;99.90
52044;DHT22;38053;53.100;6.078;2023-05-10T14:30:55;16.90;99.90
52044;DHT22;38053;53.100;6.078;2023-05-10T14:33:20;17.00;99.90
52044;DHT22;38053;53.100;6.078;2023-05-10T14:35:46;17.00;99.90
52044;DHT22;38053;53.100;6.078;2023-05-10T14:38:13;17.10;99.90
52044;DHT22;38053;53.100;6.078;2023-05-10T14:40:39;17.10;99.90
52044;DHT22;38053;53.100;6.078;2023-05-10T14:43:04;17.10;99.90
52044;DHT22;38053;53.100;6.078;2023-05-10T14:45:30;17.10;99.90
52044;DHT22;38053;53.100;6.078;2023-05-10T14:47:56;17.10;99.90
52044;DHT22;38053;53.100;6.078;2023-05-10T14:50:22;17.10;99.90
52044;DHT22;38053;53.100;6.078;2023-05-10T14:52:48;17.10;99.90
52044;DHT22;38053;53.100;6.078;2023-05-10T14:55:15;17.10;99.90
52044;DHT22;38053;53.100;6.078;2023-05-10T14:57:40;17.00;99.90
52044;DHT22;38053;53.100;6.078;2023-05-10T15:00:06;17.00;99.90
52044;DHT22;38053;53.100;6.078;2023-05-10T15:02:32;16.80;99.90
52044;DHT22;38053;53.100;6.078;2023-05-10T15:04:58;16.70;99.90
52044;DHT22;38053;53.100;6.078;2023-05-10T15:07:24;16.60;99.90
52044;DHT22;38053;53.100;6.078;2023-05-10T15:09:50;16.50;99.90
52044;DHT22;38053;53.100;6.078;2023-05-10T15:12:17;16.30;99.90
52044;DHT22;38053;53.100;6.078;2023-05-10T15:14:43;16.30;99.90
52044;DHT22;38053;53.100;6.078;2023-05-10T15:17:09;16.20;99.90
52044;DHT22;38053;53.100;6.078;2023-05-10T15:19:35;16.10;99.90
52044;DHT22;38053;53.100;6.078;2023-05-10T15:22:02;16.10;99.90
52044;DHT22;38053;53.100;6.078;2023-05-10T15:24:28;16.00;99.90
52044;DHT22;38053;53.100;6.078;2023-05-10T15:26:54;15.90;99.90
52044;DHT22;38053;53.100;6.078;2023-05-10T15:29:19;15.90;99.90
52044;DHT22;38053;53.100;6.078;2023-05-10T15:31:47;15.80;99.90
52044;DHT22;38053;53.100;6.078;2023-05-10T15:34:13;15.70;99.90
52044;DHT22;38053;53.100;6.078;2023-05-10T15:36:39;15.70;99.90
52044;DHT22;38053;53.100;6.078;2023-05-10T15:39:05;15.60;99.90
52044;DHT22;38053;53.100;6.078;2023-05-10T15:41:30;15.60;99.90
52044;DHT22;38053;53.100;6.078;2023-05-10T15:43:57;15.60;99.90
52044;DHT22;38053;53.100;6.078;2023-05-10T15:46:25;15.50;99.90
52044;DHT22;38053;53.100;6.078;2023-05-10T15:48:51;15.50;99.90
52044;DHT22;38053;53.100;6.078;2023-05-10T15:51:17;15.40;99.90
52044;DHT22;38053;53.100;6.078;2023-05-10T15:53:44;15.40;99.90
52044;DHT22;38053;53.100;6.078;2023-05-10T15:56:10;15.30;99.90
52044;DHT22;38053;53.100;6.078;2023-05-10T15:58:37;15.20;99.90
52044;DHT22;38053;53.100;6.078;2023-05-10T16:01:03;15.20;99.90
52044;DHT22;38053;53.100;6.078;2023-05-10T16:03:30;15.10;99.90